sensor_id;sensor_type;location;lat;lon;timestamp;pressure;altitude;pressure_sealevel;temperature;humidity
54936;BME280;40838;50.676;7.838;2023-05-22T00:00:12;98117.97;;;7.10;100.00
54936;BME280;40838;50.676;7.838;2023-05-22T00:02:39;98117.50;;;7.23;100.00
54936;BME280;40838;50.676;7.838;2023-05-22T00:05:07;98123.03;;;7.16;100.00
54936;BME280;40838;50.676;7.838;2023-05-22T00:07:34;98113.44;;;7.00;100.00
54936;BME280;40838;50.676;7.838;2023-05-22T00:10:03;98116.84;;;6.96;100.00
54936;BME280;40838;50.676;7.838;2023-05-22T00:12:30;98117.09;;;6.89;100.00
54936;BME280;40838;50.676;7.838;2023-05-22T00:14:58;98123.16;;;6.89;100.00
54936;BME280;40838;50.676;7.838;2023-05-22T00:17:24;98115.81;;;6.97;100.00
54936;BME280;40838;50.676;7.838;2023-05-22T00:19:51;98112.56;;;6.89;100.00
54936;BME280;40838;50.676;7.838;2023-05-22T00:22:19;98113.94;;;6.97;100.00
54936;BME280;40838;50.676;7.838;2023-05-22T00:24:46;98108.16;;;7.05;100.00
54936;BME280;40838;50.676;7.838;2023-05-22T00:27:12;98111.31;;;7.07;100.00
54936;BME280;40838;50.676;7.838;2023-05-22T00:29:39;98109.19;;;7.04;100.00
54936;BME280;40838;50.676;7.838;2023-05-22T00:32:07;98105.19;;;6.91;100.00
54936;BME280;40838;50.676;7.838;2023-05-22T00:34:34;98096.69;;;6.89;100.00
54936;BME280;40838;50.676;7.838;2023-05-22T00:37:00;98099.06;;;6.86;100.00
54936;BME280;40838;50.676;7.838;2023-05-22T00:39:27;98103.03;;;6.83;100.00
54936;BME280;40838;50.676;7.838;2023-05-22T00:41:54;98102.75;;;6.80;100.00
54936;BME280;40838;50.676;7.838;2023-05-22T00:44:20;98104.56;;;6.74;100.00
54936;BME280;40838;50.676;7.838;2023-05-22T00:46:49;98093.94;;;6.69;100.00
54936;BME280;40838;50.676;7.838;2023-05-22T00:49:17;98105.03;;;6.66;100.00
54936;BME280;40838;50.676;7.838;2023-05-22T00:51:45;98097.34;;;6.59;100.00
54936;BME280;40838;50.676;7.838;2023-05-22T00:54:11;98101.88;;;6.69;100.00
54936;BME280;40838;50.676;7.838;2023-05-22T00:56:38;98102.94;;;6.68;100.00
54936;BME280;40838;50.676;7.838;2023-05-22T00:59:05;98095.00;;;6.68;100.00
54936;BME280;40838;50.676;7.838;2023-05-22T01:01:32;98104.53;;;6.69;100.00
54936;BME280;40838;50.676;7.838;2023-05-22T01:04:03;98096.59;;;6.64;100.00
54936;BME280;40838;50.676;7.838;2023-05-22T01:06:33;98101.34;;;6.62;100.00
54936;BME280;40838;50.676;7.838;2023-05-22T01:08:59;98101.25;;;6.52;100.00
54936;BME280;40838;50.676;7.838;2023-05-22T01:11:27;98095.97;;;6.46;100.00
54936;BME280;40838;50.676;7.838;2023-05-22T01:13:54;98094.84;;;6.42;100.00
54936;BME280;40838;50.676;7.838;2023-05-22T01:16:29;98099.81;;;6.34;100.00
54936;BME280;40838;50.676;7.838;2023-05-22T01:21:58;98089.97;;;6.24;100.00
54936;BME280;40838;50.676;7.838;2023-05-22T01:24:37;98093.69;;;6.23;100.00
54936;BME280;40838;50.676;7.838;2023-05-22T01:27:20;98089.94;;;6.19;100.00
54936;BME280;40838;50.676;7.838;2023-05-22T01:29:53;98088.34;;;6.18;100.00
54936;BME280;40838;50.676;7.838;2023-05-22T01:32:29;98089.94;;;6.19;100.00
54936;BME280;40838;50.676;7.838;2023-05-22T01:34:58;98088.31;;;6.13;100.00
54936;BME280;40838;50.676;7.838;2023-05-22T01:37:26;98085.16;;;6.16;100.00
54936;BME280;40838;50.676;7.838;2023-05-22T01:39:53;98087.81;;;6.16;100.00
54936;BME280;40838;50.676;7.838;2023-05-22T01:42:21;98088.56;;;6.11;100.00
54936;BME280;40838;50.676;7.838;2023-05-22T01:44:48;98090.19;;;6.17;100.00
54936;BME280;40838;50.676;7.838;2023-05-22T01:47:14;98092.88;;;6.22;100.00
54936;BME280;40838;50.676;7.838;2023-05-22T01:49:43;98085.47;;;6.24;100.00
54936;BME280;40838;50.676;7.838;2023-05-22T01:52:14;98084.81;;;6.44;100.00
54936;BME280;40838;50.676;7.838;2023-05-22T01:54:45;98078.66;;;6.34;100.00
54936;BME280;40838;50.676;7.838;2023-05-22T01:57:15;98085.25;;;6.31;100.00
54936;BME280;40838;50.676;7.838;2023-05-22T01:59:44;98080.69;;;6.21;100.00
54936;BME280;40838;50.676;7.838;2023-05-22T02:02:14;98082.97;;;6.02;100.00
54936;BME280;40838;50.676;7.838;2023-05-22T02:04:42;98086.28;;;5.93;100.00
54936;BME280;40838;50.676;7.838;2023-05-22T02:07:14;98077.19;;;5.84;100.00
54936;BME280;40838;50.676;7.838;2023-05-22T02:09:43;98088.00;;;5.77;100.00
54936;BME280;40838;50.676;7.838;2023-05-22T02:12:13;98079.50;;;5.75;100.00
54936;BME280;40838;50.676;7.838;2023-05-22T02:14:40;98078.66;;;5.69;100.00
54936;BME280;40838;50.676;7.838;2023-05-22T02:17:12;98077.94;;;5.74;100.00
54936;BME280;40838;50.676;7.838;2023-05-22T02:19:41;98074.16;;;5.70;100.00
54936;BME280;40838;50.676;7.838;2023-05-22T02:22:10;98075.50;;;5.67;100.00
54936;BME280;40838;50.676;7.838;2023-05-22T02:24:39;98078.88;;;5.63;100.00
54936;BME280;40838;50.676;7.838;2023-05-22T02:27:07;98075.94;;;5.59;100.00
54936;BME280;40838;50.676;7.838;2023-05-22T02:29:36;98075.16;;;5.58;100.00
54936;BME280;40838;50.676;7.838;2023-05-22T02:32:03;98078.88;;;5.63;100.00
54936;BME280;40838;50.676;7.838;2023-05-22T02:34:30;98077.13;;;5.73;100.00
54936;BME280;40838;50.676;7.838;2023-05-22T02:36:59;98074.22;;;5.75;100.00
54936;BME280;40838;50.676;7.838;2023-05-22T02:39:28;98080.66;;;5.57;100.00
54936;BME280;40838;50.676;7.838;2023-05-22T02:41:58;98075.69;;;5.61;100.00
54936;BME280;40838;50.676;7.838;2023-05-22T02:44:25;98078.28;;;5.55;100.00
54936;BME280;40838;50.676;7.838;2023-05-22T02:46:52;98077.75;;;5.53;100.00
54936;BME280;40838;50.676;7.838;2023-05-22T02:49:19;98084.53;;;5.44;100.00
54936;BME280;40838;50.676;7.838;2023-05-22T02:51:45;98083.09;;;5.37;100.00
54936;BME280;40838;50.676;7.838;2023-05-22T02:54:13;98086.84;;;5.41;100.00
54936;BME280;40838;50.676;7.838;2023-05-22T02:56:40;98078.25;;;5.50;100.00
54936;BME280;40838;50.676;7.838;2023-05-22T02:59:08;98076.31;;;5.46;100.00
54936;BME280;40838;50.676;7.838;2023-05-22T03:01:34;98081.13;;;5.49;100.00
54936;BME280;40838;50.676;7.838;2023-05-22T03:04:03;98083.72;;;5.44;100.00
54936;BME280;40838;50.676;7.838;2023-05-22T03:06:29;98082.06;;;5.38;100.00
54936;BME280;40838;50.676;7.838;2023-05-22T03:08:56;98082.22;;;5.53;100.00
54936;BME280;40838;50.676;7.838;2023-05-22T03:11:23;98079.63;;;5.58;100.00
54936;BME280;40838;50.676;7.838;2023-05-22T03:13:49;98094.22;;;5.66;100.00
54936;BME280;40838;50.676;7.838;2023-05-22T03:16:17;98083.38;;;5.62;100.00
54936;BME280;40838;50.676;7.838;2023-05-22T03:18:45;98092.59;;;5.60;100.00
54936;BME280;40838;50.676;7.838;2023-05-22T03:21:12;98083.94;;;5.64;100.00
54936;BME280;40838;50.676;7.838;2023-05-22T03:23:39;98085.97;;;5.57;100.00
54936;BME280;40838;50.676;7.838;2023-05-22T03:26:05;98080.44;;;5.58;100.00
54936;BME280;40838;50.676;7.838;2023-05-22T03:28:35;98080.72;;;5.62;100.00
54936;BME280;40838;50.676;7.838;2023-05-22T03:31:02;98086.06;;;5.67;100.00
54936;BME280;40838;50.676;7.838;2023-05-22T03:33:40;98085.94;;;5.84;100.00
54936;BME280;40838;50.676;7.838;2023-05-22T03:36:07;98082.06;;;5.65;100.00
54936;BME280;40838;50.676;7.838;2023-05-22T03:38:34;98080.97;;;5.61;100.00
54936;BME280;40838;50.676;7.838;2023-05-22T03:41:00;98084.38;;;5.56;100.00
54936;BME280;40838;50.676;7.838;2023-05-22T03:43:28;98092.31;;;5.34;100.00
54936;BME280;40838;50.676;7.838;2023-05-22T03:45:57;98085.88;;;5.25;100.00
54936;BME280;40838;50.676;7.838;2023-05-22T03:48:24;98087.66;;;5.41;100.00
54936;BME280;40838;50.676;7.838;2023-05-22T03:50:52;98081.88;;;5.44;100.00
54936;BME280;40838;50.676;7.838;2023-05-22T03:53:18;98084.75;;;5.43;100.00
54936;BME280;40838;50.676;7.838;2023-05-22T03:55:45;98086.91;;;5.46;100.00
54936;BME280;40838;50.676;7.838;2023-05-22T03:58:12;98080.94;;;5.55;100.00
54936;BME280;40838;50.676;7.838;2023-05-22T04:00:38;98077.31;;;5.67;100.00
54936;BME280;40838;50.676;7.838;2023-05-22T04:03:06;98074.28;;;5.80;100.00
54936;BME280;40838;50.676;7.838;2023-05-22T04:05:37;98074.63;;;5.89;100.00
54936;BME280;40838;50.676;7.838;2023-05-22T04:08:06;98076.50;;;5.88;100.00
54936;BME280;40838;50.676;7.838;2023-05-22T04:10:32;98078.13;;;5.94;100.00
54936;BME280;40838;50.676;7.838;2023-05-22T04:13:03;98081.59;;;6.00;100.00
54936;BME280;40838;50.676;7.838;2023-05-22T04:15:30;98079.53;;;6.07;100.00
54936;BME280;40838;50.676;7.838;2023-05-22T04:17:58;98083.03;;;6.13;100.00
54936;BME280;40838;50.676;7.838;2023-05-22T04:20:26;98080.66;;;6.11;100.00
54936;BME280;40838;50.676;7.838;2023-05-22T04:22:53;98078.00;;;6.16;100.00
54936;BME280;40838;50.676;7.838;2023-05-22T04:25:21;98084.78;;;6.02;100.00
54936;BME280;40838;50.676;7.838;2023-05-22T04:27:48;98086.38;;;6.03;100.00
54936;BME280;40838;50.676;7.838;2023-05-22T04:30:14;98082.59;;;6.31;100.00
54936;BME280;40838;50.676;7.838;2023-05-22T04:32:42;98084.72;;;6.29;100.00
54936;BME280;40838;50.676;7.838;2023-05-22T04:35:09;98088.28;;;6.50;100.00
54936;BME280;40838;50.676;7.838;2023-05-22T04:37:38;98093.31;;;6.52;100.00
54936;BME280;40838;50.676;7.838;2023-05-22T04:40:07;98094.47;;;6.66;100.00
54936;BME280;40838;50.676;7.838;2023-05-22T04:42:35;98095.06;;;6.78;100.00
54936;BME280;40838;50.676;7.838;2023-05-22T04:45:02;98097.78;;;6.93;100.00
54936;BME280;40838;50.676;7.838;2023-05-22T04:47:29;98100.84;;;6.75;100.00
54936;BME280;40838;50.676;7.838;2023-05-22T04:49:56;98107.63;;;7.03;100.00
54936;BME280;40838;50.676;7.838;2023-05-22T04:52:24;98106.84;;;7.08;100.00
54936;BME280;40838;50.676;7.838;2023-05-22T04:54:51;98112.97;;;7.19;100.00
54936;BME280;40838;50.676;7.838;2023-05-22T04:57:18;98110.34;;;7.24;100.00
54936;BME280;40838;50.676;7.838;2023-05-22T04:59:47;98106.72;;;7.40;100.00
54936;BME280;40838;50.676;7.838;2023-05-22T05:02:16;98098.81;;;7.71;100.00
54936;BME280;40838;50.676;7.838;2023-05-22T05:04:42;98102.81;;;7.94;100.00
54936;BME280;40838;50.676;7.838;2023-05-22T05:07:09;98103.59;;;8.15;100.00
54936;BME280;40838;50.676;7.838;2023-05-22T05:09:36;98103.59;;;8.40;100.00
54936;BME280;40838;50.676;7.838;2023-05-22T05:12:03;98104.38;;;8.71;100.00
54936;BME280;40838;50.676;7.838;2023-05-22T05:14:29;98103.53;;;8.81;100.00
54936;BME280;40838;50.676;7.838;2023-05-22T05:16:57;98095.63;;;8.56;100.00
54936;BME280;40838;50.676;7.838;2023-05-22T05:19:24;98108.22;;;9.59;100.00
54936;BME280;40838;50.676;7.838;2023-05-22T05:21:52;98100.72;;;9.67;100.00
54936;BME280;40838;50.676;7.838;2023-05-22T05:24:23;98093.34;;;10.85;100.00
54936;BME280;40838;50.676;7.838;2023-05-22T05:26:49;98086.47;;;11.98;100.00
54936;BME280;40838;50.676;7.838;2023-05-22T05:29:18;98090.78;;;10.70;100.00
54936;BME280;40838;50.676;7.838;2023-05-22T05:32:02;98095.75;;;10.82;100.00
54936;BME280;40838;50.676;7.838;2023-05-22T05:34:33;98090.22;;;10.49;100.00
54936;BME280;40838;50.676;7.838;2023-05-22T05:37:10;98089.03;;;10.07;100.00
54936;BME280;40838;50.676;7.838;2023-05-22T05:39:39;98087.81;;;11.00;100.00
54936;BME280;40838;50.676;7.838;2023-05-22T05:42:08;98089.69;;;11.81;100.00
54936;BME280;40838;50.676;7.838;2023-05-22T05:44:36;98083.34;;;13.25;100.00
54936;BME280;40838;50.676;7.838;2023-05-22T05:47:06;98086.72;;;14.12;100.00
54936;BME280;40838;50.676;7.838;2023-05-22T05:49:33;98076.19;;;15.70;100.00
54936;BME280;40838;50.676;7.838;2023-05-22T05:51:59;98080.28;;;15.85;100.00
54936;BME280;40838;50.676;7.838;2023-05-22T05:54:26;98082.94;;;16.19;100.00
54936;BME280;40838;50.676;7.838;2023-05-22T05:56:58;98077.50;;;16.46;100.00
54936;BME280;40838;50.676;7.838;2023-05-22T05:59:27;98078.88;;;15.70;100.00
54936;BME280;40838;50.676;7.838;2023-05-22T06:02:15;98079.75;;;15.13;100.00
54936;BME280;40838;50.676;7.838;2023-05-22T06:04:43;98082.00;;;16.71;100.00
54936;BME280;40838;50.676;7.838;2023-05-22T06:07:13;98081.56;;;17.28;100.00
54936;BME280;40838;50.676;7.838;2023-05-22T06:09:43;98088.16;;;18.27;100.00
54936;BME280;40838;50.676;7.838;2023-05-22T06:12:17;98085.56;;;18.76;100.00
54936;BME280;40838;50.676;7.838;2023-05-22T06:14:44;98094.13;;;17.37;100.00
54936;BME280;40838;50.676;7.838;2023-05-22T06:17:11;98095.56;;;15.32;100.00
54936;BME280;40838;50.676;7.838;2023-05-22T06:19:42;98092.88;;;16.36;100.00
54936;BME280;40838;50.676;7.838;2023-05-22T06:22:18;98094.78;;;16.27;100.00
54936;BME280;40838;50.676;7.838;2023-05-22T06:24:47;98093.06;;;16.23;100.00
54936;BME280;40838;50.676;7.838;2023-05-22T06:27:18;98098.88;;;16.80;100.00
54936;BME280;40838;50.676;7.838;2023-05-22T06:29:44;98097.19;;;16.67;100.00
54936;BME280;40838;50.676;7.838;2023-05-22T06:32:11;98098.19;;;16.92;100.00
54936;BME280;40838;50.676;7.838;2023-05-22T06:34:40;98101.34;;;16.56;100.00
54936;BME280;40838;50.676;7.838;2023-05-22T06:37:10;98102.28;;;16.60;100.00
54936;BME280;40838;50.676;7.838;2023-05-22T06:39:40;98105.19;;;16.37;100.00
54936;BME280;40838;50.676;7.838;2023-05-22T06:42:36;98099.47;;;16.86;100.00
54936;BME280;40838;50.676;7.838;2023-05-22T06:45:21;98114.25;;;15.98;100.00
54936;BME280;40838;50.676;7.838;2023-05-22T06:48:04;98108.88;;;16.71;100.00
54936;BME280;40838;50.676;7.838;2023-05-22T06:50:35;98113.09;;;18.24;100.00
54936;BME280;40838;50.676;7.838;2023-05-22T06:53:03;98115.06;;;18.15;100.00
54936;BME280;40838;50.676;7.838;2023-05-22T06:55:31;98116.97;;;17.81;100.00
54936;BME280;40838;50.676;7.838;2023-05-22T06:58:05;98110.97;;;18.63;100.00
54936;BME280;40838;50.676;7.838;2023-05-22T07:00:33;98109.97;;;19.17;100.00
54936;BME280;40838;50.676;7.838;2023-05-22T07:03:10;98117.00;;;17.51;100.00
54936;BME280;40838;50.676;7.838;2023-05-22T07:06:06;98119.63;;;17.60;100.00
54936;BME280;40838;50.676;7.838;2023-05-22T07:08:34;98120.44;;;18.03;100.00
54936;BME280;40838;50.676;7.838;2023-05-22T07:11:00;98120.72;;;18.80;100.00
54936;BME280;40838;50.676;7.838;2023-05-22T07:13:31;98113.78;;;18.91;100.00
54936;BME280;40838;50.676;7.838;2023-05-22T07:15:58;98118.72;;;19.26;100.00
54936;BME280;40838;50.676;7.838;2023-05-22T07:18:24;98123.44;;;19.41;100.00
54936;BME280;40838;50.676;7.838;2023-05-22T07:20:51;98124.75;;;17.53;100.00
54936;BME280;40838;50.676;7.838;2023-05-22T07:23:20;98125.97;;;18.18;100.00
54936;BME280;40838;50.676;7.838;2023-05-22T07:25:49;98126.53;;;18.45;100.00
54936;BME280;40838;50.676;7.838;2023-05-22T07:28:19;98127.59;;;17.57;100.00
54936;BME280;40838;50.676;7.838;2023-05-22T07:30:52;98119.03;;;19.12;100.00
54936;BME280;40838;50.676;7.838;2023-05-22T07:33:19;98123.66;;;18.99;100.00
54936;BME280;40838;50.676;7.838;2023-05-22T07:35:46;98126.78;;;18.52;100.00
54936;BME280;40838;50.676;7.838;2023-05-22T07:38:13;98107.91;;;19.38;100.00
54936;BME280;40838;50.676;7.838;2023-05-22T07:40:53;98126.44;;;18.54;100.00
54936;BME280;40838;50.676;7.838;2023-05-22T07:43:21;98114.88;;;19.79;100.00
54936;BME280;40838;50.676;7.838;2023-05-22T07:45:47;98122.06;;;18.61;100.00
54936;BME280;40838;50.676;7.838;2023-05-22T07:48:18;98126.00;;;17.35;100.00
54936;BME280;40838;50.676;7.838;2023-05-22T07:50:44;98125.91;;;16.28;100.00
54936;BME280;40838;50.676;7.838;2023-05-22T07:53:12;98124.91;;;15.20;100.00
54936;BME280;40838;50.676;7.838;2023-05-22T07:55:41;98127.66;;;16.07;100.00
54936;BME280;40838;50.676;7.838;2023-05-22T07:58:09;98127.66;;;15.55;100.00
54936;BME280;40838;50.676;7.838;2023-05-22T08:00:39;98134.13;;;14.96;100.00
54936;BME280;40838;50.676;7.838;2023-05-22T08:03:06;98130.41;;;15.23;100.00
54936;BME280;40838;50.676;7.838;2023-05-22T08:05:33;98134.16;;;15.80;100.00
54936;BME280;40838;50.676;7.838;2023-05-22T08:08:00;98132.75;;;16.00;100.00
54936;BME280;40838;50.676;7.838;2023-05-22T08:10:27;98139.53;;;15.54;100.00
54936;BME280;40838;50.676;7.838;2023-05-22T08:12:53;98145.69;;;14.21;100.00
54936;BME280;40838;50.676;7.838;2023-05-22T08:15:24;98145.03;;;14.15;100.00
54936;BME280;40838;50.676;7.838;2023-05-22T08:17:50;98141.06;;;14.35;100.00
54936;BME280;40838;50.676;7.838;2023-05-22T08:20:17;98146.78;;;13.97;100.00
54936;BME280;40838;50.676;7.838;2023-05-22T08:22:43;98148.41;;;14.52;100.00
54936;BME280;40838;50.676;7.838;2023-05-22T08:25:10;98143.00;;;14.43;100.00
54936;BME280;40838;50.676;7.838;2023-05-22T08:27:39;98150.66;;;14.05;100.00
54936;BME280;40838;50.676;7.838;2023-05-22T08:30:09;98146.72;;;14.56;100.00
54936;BME280;40838;50.676;7.838;2023-05-22T08:32:37;98153.84;;;13.93;100.00
54936;BME280;40838;50.676;7.838;2023-05-22T08:35:03;98149.13;;;14.12;100.00
54936;BME280;40838;50.676;7.838;2023-05-22T08:37:30;98142.53;;;16.04;100.00
54936;BME280;40838;50.676;7.838;2023-05-22T08:39:57;98145.84;;;15.84;100.00
54936;BME280;40838;50.676;7.838;2023-05-22T08:42:23;98142.66;;;16.98;100.00
54936;BME280;40838;50.676;7.838;2023-05-22T08:44:50;98149.94;;;15.99;100.00
54936;BME280;40838;50.676;7.838;2023-05-22T08:47:16;98138.59;;;16.19;100.00
54936;BME280;40838;50.676;7.838;2023-05-22T08:49:46;98137.31;;;15.90;100.00
54936;BME280;40838;50.676;7.838;2023-05-22T08:52:17;98136.38;;;15.95;100.00
54936;BME280;40838;50.676;7.838;2023-05-22T08:54:44;98140.63;;;15.87;100.00
54936;BME280;40838;50.676;7.838;2023-05-22T08:57:18;98146.91;;;15.39;100.00
54936;BME280;40838;50.676;7.838;2023-05-22T08:59:45;98137.75;;;15.40;100.00
54936;BME280;40838;50.676;7.838;2023-05-22T09:02:13;98138.72;;;15.53;100.00
54936;BME280;40838;50.676;7.838;2023-05-22T09:04:39;98146.91;;;14.99;100.00
54936;BME280;40838;50.676;7.838;2023-05-22T09:07:08;98147.69;;;14.91;100.00
54936;BME280;40838;50.676;7.838;2023-05-22T09:09:35;98140.31;;;16.32;100.00
54936;BME280;40838;50.676;7.838;2023-05-22T09:12:06;98143.63;;;15.68;100.00
54936;BME280;40838;50.676;7.838;2023-05-22T09:14:37;98141.88;;;16.33;100.00
54936;BME280;40838;50.676;7.838;2023-05-22T09:17:04;98143.78;;;15.72;100.00
54936;BME280;40838;50.676;7.838;2023-05-22T09:19:31;98149.00;;;15.60;100.00
54936;BME280;40838;50.676;7.838;2023-05-22T09:22:00;98145.19;;;15.61;100.00
54936;BME280;40838;50.676;7.838;2023-05-22T09:24:29;98144.56;;;16.16;100.00
54936;BME280;40838;50.676;7.838;2023-05-22T09:26:55;98148.53;;;16.27;100.00
54936;BME280;40838;50.676;7.838;2023-05-22T09:29:22;98137.13;;;16.86;100.00
54936;BME280;40838;50.676;7.838;2023-05-22T09:31:49;98135.13;;;16.74;100.00
54936;BME280;40838;50.676;7.838;2023-05-22T09:34:16;98137.66;;;16.79;100.00
54936;BME280;40838;50.676;7.838;2023-05-22T09:36:43;98135.66;;;16.59;100.00
54936;BME280;40838;50.676;7.838;2023-05-22T09:39:10;98134.44;;;16.95;100.00
54936;BME280;40838;50.676;7.838;2023-05-22T09:41:38;98137.00;;;16.01;100.00
54936;BME280;40838;50.676;7.838;2023-05-22T09:44:14;98129.72;;;15.58;100.00
54936;BME280;40838;50.676;7.838;2023-05-22T09:46:44;98128.47;;;15.81;100.00
54936;BME280;40838;50.676;7.838;2023-05-22T09:49:11;98131.63;;;15.74;100.00
54936;BME280;40838;50.676;7.838;2023-05-22T09:51:38;98133.72;;;15.20;100.00
54936;BME280;40838;50.676;7.838;2023-05-22T09:54:07;98125.28;;;16.23;100.00
54936;BME280;40838;50.676;7.838;2023-05-22T09:56:35;98127.84;;;15.84;100.00
54936;BME280;40838;50.676;7.838;2023-05-22T09:59:04;98127.66;;;16.15;100.00
54936;BME280;40838;50.676;7.838;2023-05-22T10:01:33;98129.06;;;15.43;100.00
54936;BME280;40838;50.676;7.838;2023-05-22T10:04:00;98131.63;;;16.09;100.00
54936;BME280;40838;50.676;7.838;2023-05-22T10:06:28;98130.53;;;17.13;100.00
54936;BME280;40838;50.676;7.838;2023-05-22T10:09:00;98124.88;;;16.68;100.00
54936;BME280;40838;50.676;7.838;2023-05-22T10:11:28;98124.88;;;17.57;100.00
54936;BME280;40838;50.676;7.838;2023-05-22T10:13:56;98121.81;;;17.67;100.00
54936;BME280;40838;50.676;7.838;2023-05-22T10:16:26;98120.94;;;18.17;100.00
54936;BME280;40838;50.676;7.838;2023-05-22T10:18:53;98120.63;;;18.88;100.00
54936;BME280;40838;50.676;7.838;2023-05-22T10:21:20;98111.94;;;19.44;100.00
54936;BME280;40838;50.676;7.838;2023-05-22T10:23:48;98108.72;;;19.14;100.00
54936;BME280;40838;50.676;7.838;2023-05-22T10:26:15;98109.97;;;19.17;100.00
54936;BME280;40838;50.676;7.838;2023-05-22T10:28:44;98113.09;;;20.12;100.00
54936;BME280;40838;50.676;7.838;2023-05-22T10:31:13;98107.91;;;21.30;93.21
54936;BME280;40838;50.676;7.838;2023-05-22T10:33:55;98102.97;;;20.53;98.94
54936;BME280;40838;50.676;7.838;2023-05-22T10:36:27;98101.25;;;20.16;100.00
54936;BME280;40838;50.676;7.838;2023-05-22T10:39:02;98100.84;;;19.33;100.00
54936;BME280;40838;50.676;7.838;2023-05-22T10:41:36;98097.47;;;19.65;100.00
54936;BME280;40838;50.676;7.838;2023-05-22T10:44:03;98088.28;;;19.94;100.00
54936;BME280;40838;50.676;7.838;2023-05-22T10:46:30;98093.50;;;19.09;100.00
54936;BME280;40838;50.676;7.838;2023-05-22T10:48:58;98089.78;;;19.39;100.00
54936;BME280;40838;50.676;7.838;2023-05-22T10:51:31;98090.81;;;19.74;100.00
54936;BME280;40838;50.676;7.838;2023-05-22T10:54:00;98091.94;;;19.08;100.00
54936;BME280;40838;50.676;7.838;2023-05-22T10:56:32;98094.63;;;18.47;100.00
54936;BME280;40838;50.676;7.838;2023-05-22T10:59:00;98097.59;;;19.68;99.46
54936;BME280;40838;50.676;7.838;2023-05-22T11:01:29;98099.25;;;19.45;97.54
54936;BME280;40838;50.676;7.838;2023-05-22T11:04:10;98090.31;;;19.56;98.57
54936;BME280;40838;50.676;7.838;2023-05-22T11:06:42;98100.25;;;20.53;96.24
54936;BME280;40838;50.676;7.838;2023-05-22T11:09:16;98087.31;;;20.46;96.41
54936;BME280;40838;50.676;7.838;2023-05-22T11:11:43;98080.44;;;20.64;94.13
54936;BME280;40838;50.676;7.838;2023-05-22T11:14:11;98087.16;;;20.39;91.50
54936;BME280;40838;50.676;7.838;2023-05-22T11:16:38;98086.25;;;19.63;96.47
54936;BME280;40838;50.676;7.838;2023-05-22T11:19:07;98082.59;;;19.83;100.00
54936;BME280;40838;50.676;7.838;2023-05-22T11:21:40;98077.13;;;20.39;99.31
54936;BME280;40838;50.676;7.838;2023-05-22T11:24:07;98078.88;;;20.63;99.92
54936;BME280;40838;50.676;7.838;2023-05-22T11:26:35;98073.09;;;20.97;94.67
54936;BME280;40838;50.676;7.838;2023-05-22T11:29:01;98078.06;;;19.87;100.00
54936;BME280;40838;50.676;7.838;2023-05-22T11:31:35;98076.59;;;20.18;99.96
54936;BME280;40838;50.676;7.838;2023-05-22T11:34:02;98059.47;;;20.14;99.70
54936;BME280;40838;50.676;7.838;2023-05-22T11:36:29;98068.03;;;20.16;100.00
54936;BME280;40838;50.676;7.838;2023-05-22T11:38:57;98065.06;;;19.65;100.00
54936;BME280;40838;50.676;7.838;2023-05-22T11:41:28;98055.78;;;19.50;97.78
54936;BME280;40838;50.676;7.838;2023-05-22T11:43:55;98054.63;;;19.23;100.00
54936;BME280;40838;50.676;7.838;2023-05-22T11:46:22;98051.31;;;19.70;100.00
54936;BME280;40838;50.676;7.838;2023-05-22T11:48:50;98058.81;;;20.64;98.03
54936;BME280;40838;50.676;7.838;2023-05-22T11:51:20;98053.06;;;20.66;97.61
54936;BME280;40838;50.676;7.838;2023-05-22T11:53:47;98050.25;;;20.78;96.61
54936;BME280;40838;50.676;7.838;2023-05-22T11:56:18;98055.09;;;19.53;100.00
54936;BME280;40838;50.676;7.838;2023-05-22T11:58:46;98048.72;;;19.73;100.00
54936;BME280;40838;50.676;7.838;2023-05-22T12:01:13;98042.59;;;19.89;99.68
54936;BME280;40838;50.676;7.838;2023-05-22T12:03:40;98036.66;;;19.83;100.00
54936;BME280;40838;50.676;7.838;2023-05-22T12:06:07;98035.06;;;20.10;100.00
54936;BME280;40838;50.676;7.838;2023-05-22T12:08:34;98036.19;;;20.41;99.63
54936;BME280;40838;50.676;7.838;2023-05-22T12:11:03;98028.38;;;20.52;100.00
54936;BME280;40838;50.676;7.838;2023-05-22T12:13:31;98028.78;;;20.85;93.95
54936;BME280;40838;50.676;7.838;2023-05-22T12:15:59;98026.59;;;20.75;95.21
54936;BME280;40838;50.676;7.838;2023-05-22T12:18:26;98029.31;;;20.75;94.65
54936;BME280;40838;50.676;7.838;2023-05-22T12:20:53;98032.22;;;19.91;100.00
54936;BME280;40838;50.676;7.838;2023-05-22T12:23:21;98037.13;;;20.17;100.00
54936;BME280;40838;50.676;7.838;2023-05-22T12:25:54;98024.47;;;20.84;98.17
54936;BME280;40838;50.676;7.838;2023-05-22T12:28:21;98032.44;;;20.14;98.67
54936;BME280;40838;50.676;7.838;2023-05-22T12:30:54;98029.31;;;20.75;100.00
54936;BME280;40838;50.676;7.838;2023-05-22T12:33:25;98032.78;;;20.28;100.00
54936;BME280;40838;50.676;7.838;2023-05-22T12:35:52;98033.78;;;19.64;100.00
54936;BME280;40838;50.676;7.838;2023-05-22T12:38:19;98043.06;;;20.38;100.00
54936;BME280;40838;50.676;7.838;2023-05-22T12:40:46;98044.50;;;20.48;98.15
54936;BME280;40838;50.676;7.838;2023-05-22T12:43:14;98041.75;;;20.32;100.00
54936;BME280;40838;50.676;7.838;2023-05-22T12:45:41;98043.75;;;20.99;98.95
54936;BME280;40838;50.676;7.838;2023-05-22T12:48:10;98041.94;;;20.23;100.00
54936;BME280;40838;50.676;7.838;2023-05-22T12:50:37;98044.66;;;19.51;100.00
54936;BME280;40838;50.676;7.838;2023-05-22T12:53:04;98039.19;;;19.64;100.00
54936;BME280;40838;50.676;7.838;2023-05-22T12:55:31;98038.84;;;19.93;100.00
54936;BME280;40838;50.676;7.838;2023-05-22T12:57:58;98051.06;;;20.03;100.00
54936;BME280;40838;50.676;7.838;2023-05-22T13:00:24;98035.47;;;19.96;100.00
54936;BME280;40838;50.676;7.838;2023-05-22T13:02:51;98043.88;;;19.51;100.00
54936;BME280;40838;50.676;7.838;2023-05-22T13:05:20;98037.28;;;19.64;100.00